createdAt,value
2018-11-13T00:00:32.690Z,99361.34
2018-11-13T00:03:02.143Z,99366.05
2018-11-13T00:05:30.879Z,99362.39
2018-11-13T00:07:59.491Z,99371.17
2018-11-13T00:10:28.048Z,99369.58
2018-11-13T00:12:56.832Z,99369.58
2018-11-13T00:15:25.506Z,99376.49
2018-11-13T00:17:54.089Z,99380.78
2018-11-13T00:20:22.748Z,99377.83
2018-11-13T00:22:51.897Z,99378.11
2018-11-13T00:25:21.360Z,99385.78
2018-11-13T00:27:50.411Z,99396.11
2018-11-13T00:30:20.657Z,99400.38
2018-11-13T00:32:49.439Z,99400.91
2018-11-13T00:35:18.792Z,99394.84
2018-11-13T00:37:48.161Z,99393.25
2018-11-13T00:40:17.666Z,99402.30
2018-11-13T00:42:46.649Z,99400.17
2018-11-13T00:45:15.269Z,99405.49
2018-11-13T00:47:43.870Z,99402.08
2018-11-13T00:50:14.438Z,99400.48
2018-11-13T00:52:43.777Z,99402.61
2018-11-13T00:55:12.457Z,99399.69
2018-11-13T00:57:42.370Z,99397.03
2018-11-13T01:00:14.876Z,99393.86
2018-11-13T01:02:43.817Z,99400.48
2018-11-13T01:05:14.335Z,99394.13
2018-11-13T01:07:43.799Z,99394.66
2018-11-13T01:10:14.514Z,99395.99
2018-11-13T01:12:44.168Z,99403.67
2018-11-13T01:15:14.848Z,99402.09
2018-11-13T01:17:44.397Z,99396.27
2018-11-13T01:20:13.379Z,99400.77
2018-11-13T01:22:42.137Z,99397.31
2018-11-13T01:25:11.967Z,99397.04
2018-11-13T01:27:40.911Z,99392.00
2018-11-13T01:30:10.783Z,99391.19
2018-11-13T01:32:40.289Z,99391.48
2018-11-13T01:35:13.578Z,99380.88
2018-11-13T01:37:42.228Z,99382.74
2018-11-13T01:40:16.270Z,99384.06
2018-11-13T01:42:45.024Z,99382.73
2018-11-13T01:45:15.028Z,99383.83
2018-11-13T01:47:43.643Z,99380.65
2018-11-13T01:50:12.578Z,99380.37
2018-11-13T01:52:41.643Z,99373.22
2018-11-13T01:55:13.117Z,99372.14
2018-11-13T01:57:41.887Z,99370.28
2018-11-13T02:00:16.464Z,99372.42
2018-11-13T02:02:46.293Z,99373.75
2018-11-13T02:05:14.903Z,99370.81
2018-11-13T02:07:43.623Z,99368.44
2018-11-13T02:10:12.195Z,99368.97
2018-11-13T02:12:41.175Z,99368.44
2018-11-13T02:15:10.374Z,99367.13
2018-11-13T02:17:39.037Z,99363.67
2018-11-13T02:20:10.738Z,99367.93
2018-11-13T02:22:39.476Z,99369.78
2018-11-13T02:25:10.120Z,99374.04
2018-11-13T02:27:38.969Z,99372.20
2018-11-13T02:30:09.076Z,99376.41
2018-11-13T02:32:37.821Z,99376.16
2018-11-13T02:35:07.390Z,99372.19
2018-11-13T02:37:35.966Z,99369.02
2018-11-13T02:40:04.653Z,99375.37
2018-11-13T02:42:34.026Z,99371.92
2018-11-13T02:45:02.669Z,99371.92
2018-11-13T02:47:31.778Z,99372.49
2018-11-13T02:50:00.559Z,99364.53
2018-11-13T02:52:29.126Z,99368.51
2018-11-13T02:54:57.708Z,99370.64
2018-11-13T02:57:26.403Z,99361.08
2018-11-13T02:59:54.993Z,99358.44
2018-11-13T03:02:23.615Z,99358.19
2018-11-13T03:04:53.048Z,99358.44
2018-11-13T03:07:21.708Z,99364.81
2018-11-13T03:09:50.275Z,99364.83
2018-11-13T03:12:18.960Z,99364.83
2018-11-13T03:14:49.861Z,99368.52
2018-11-13T03:17:19.012Z,99369.56
2018-11-13T03:19:47.629Z,99366.14
2018-11-13T03:22:16.439Z,99366.14
2018-11-13T03:24:45.341Z,99364.01
2018-11-13T03:27:14.251Z,99362.12
2018-11-13T03:29:43.068Z,99365.84
2018-11-13T03:32:12.561Z,99361.06
2018-11-13T03:34:42.130Z,99365.03
2018-11-13T03:37:11.075Z,99358.13
2018-11-13T03:39:39.792Z,99359.97
2018-11-13T03:42:08.655Z,99361.02
2018-11-13T03:44:37.536Z,99349.64
2018-11-13T03:47:06.476Z,99358.92
2018-11-13T03:49:35.063Z,99363.43
2018-11-13T03:52:04.437Z,99359.17
2018-11-13T03:54:33.085Z,99356.80
2018-11-13T03:57:01.695Z,99350.41
2018-11-13T03:59:30.381Z,99353.61
2018-11-13T04:01:59.761Z,99357.03
2018-11-13T04:04:28.406Z,99347.00
2018-11-13T04:06:59.116Z,99339.56
2018-11-13T04:09:29.223Z,99335.30
2018-11-13T04:11:57.931Z,99333.72
2018-11-13T04:14:26.727Z,99337.70
2018-11-13T04:16:55.408Z,99342.44
2018-11-13T04:19:24.009Z,99350.97
2018-11-13T04:22:03.316Z,99338.47
2018-11-13T04:24:32.134Z,99337.94
2018-11-13T04:27:02.043Z,99333.97
2018-11-13T04:29:31.192Z,99330.55
2018-11-13T04:32:00.099Z,99332.41
2018-11-13T04:34:28.698Z,99323.13
2018-11-13T04:36:57.397Z,99320.45
2018-11-13T04:39:26.023Z,99334.53
2018-11-13T04:41:55.071Z,99331.88
2018-11-13T04:44:24.320Z,99336.62
2018-11-13T04:46:53.149Z,99337.69
2018-11-13T04:49:22.274Z,99333.97
2018-11-13T04:51:51.506Z,99329.73
2018-11-13T04:54:21.832Z,99342.20
2018-11-13T04:56:51.107Z,99329.46
2018-11-13T04:59:19.843Z,99325.77
2018-11-13T05:01:48.550Z,99324.69
2018-11-13T05:04:17.335Z,99315.39
2018-11-13T05:06:46.075Z,99314.59
2018-11-13T05:09:15.309Z,99308.23
2018-11-13T05:11:44.678Z,99311.12
2018-11-13T05:14:13.938Z,99312.20
2018-11-13T05:16:43.592Z,99312.72
2018-11-13T05:19:12.307Z,99323.33
2018-11-13T05:21:41.138Z,99323.33
2018-11-13T05:24:10.310Z,99320.15
2018-11-13T05:26:39.313Z,99333.13
2018-11-13T05:29:07.958Z,99339.47
2018-11-13T05:31:36.598Z,99353.02
2018-11-13T05:34:05.662Z,99366.81
2018-11-13T05:36:34.433Z,99370.25
2018-11-13T05:39:03.100Z,99371.58
2018-11-13T05:41:32.793Z,99359.38
2018-11-13T05:44:01.445Z,99370.27
2018-11-13T05:46:30.464Z,99364.97
2018-11-13T05:48:59.779Z,99364.44
2018-11-13T05:51:29.076Z,99369.47
2018-11-13T05:53:57.843Z,99373.72
2018-11-13T05:56:27.038Z,99376.61
2018-11-13T05:58:57.213Z,99372.10
2018-11-13T06:01:26.137Z,99373.96
2018-11-13T06:03:55.119Z,99392.52
2018-11-13T06:06:23.871Z,99399.67
2018-11-13T06:08:53.779Z,99387.74
2018-11-13T06:11:24.197Z,99390.17
2018-11-13T06:13:54.031Z,99388.56
2018-11-13T06:16:26.532Z,99404.48
2018-11-13T06:18:57.301Z,99416.16
2018-11-13T06:21:26.456Z,99419.06
2018-11-13T06:23:55.005Z,99416.93
2018-11-13T06:26:23.629Z,99415.88
2018-11-13T06:28:52.156Z,99427.52
2018-11-13T06:31:20.697Z,99417.65
2018-11-13T06:33:49.458Z,99409.98
2018-11-13T06:36:19.166Z,99424.28
2018-11-13T06:38:50.705Z,99431.95
2018-11-13T06:41:19.341Z,99432.47
2018-11-13T06:43:48.585Z,99435.91
2018-11-13T06:46:18.988Z,99431.64
2018-11-13T06:48:47.603Z,99427.12
2018-11-13T06:51:16.154Z,99425.78
2018-11-13T06:53:56.186Z,99439.30
2018-11-13T06:56:24.893Z,99437.19
2018-11-13T06:58:53.398Z,99431.91
2018-11-13T07:01:21.971Z,99435.30
2018-11-13T07:03:50.533Z,99440.07
2018-11-13T07:06:19.123Z,99444.05
2018-11-13T07:08:47.656Z,99445.60
2018-11-13T07:11:16.372Z,99441.11
2018-11-13T07:13:45.279Z,99434.17
2018-11-13T07:16:14.117Z,99435.24
2018-11-13T07:18:42.650Z,99443.22
2018-11-13T07:21:11.271Z,99441.58
2018-11-13T07:23:40.047Z,99442.88
2018-11-13T07:26:08.711Z,99446.08
2018-11-13T07:28:37.312Z,99446.30
2018-11-13T07:31:06.003Z,99447.63
2018-11-13T07:33:34.651Z,99456.89
2018-11-13T07:36:03.221Z,99452.09
2018-11-13T07:38:31.771Z,99459.03
2018-11-13T07:41:01.602Z,99450.25
2018-11-13T07:43:35.141Z,99448.19
2018-11-13T07:46:04.345Z,99449.24
2018-11-13T07:48:32.883Z,99455.89
2018-11-13T07:51:02.368Z,99461.50
2018-11-13T07:53:37.983Z,99463.56
2018-11-13T07:56:06.624Z,99468.87
2018-11-13T07:58:38.739Z,99461.66
2018-11-13T08:01:29.653Z,99456.87
2018-11-13T08:04:09.137Z,99467.34
2018-11-13T08:06:40.397Z,99479.81
2018-11-13T08:09:10.511Z,99478.19
2018-11-13T08:11:41.065Z,99486.30
2018-11-13T08:14:09.716Z,99473.30
2018-11-13T08:16:38.236Z,99488.80
2018-11-13T08:19:06.790Z,99475.98
2018-11-13T08:21:35.940Z,99486.02
2018-11-13T08:24:04.526Z,99482.62
2018-11-13T08:26:33.151Z,99487.36
2018-11-13T08:29:01.783Z,99488.43
2018-11-13T08:31:30.486Z,99491.00
2018-11-13T08:33:59.170Z,99502.64
2018-11-13T08:36:28.406Z,99490.02
2018-11-13T08:38:58.833Z,99496.81
2018-11-13T08:41:32.020Z,99494.55
2018-11-13T08:44:00.683Z,99502.80
2018-11-13T08:46:29.428Z,99505.14
2018-11-13T08:48:59.481Z,99500.56
2018-11-13T08:51:30.469Z,99503.71
2018-11-13T08:53:59.045Z,99515.31
2018-11-13T08:56:27.691Z,99520.28
2018-11-13T08:58:56.716Z,99524.95
2018-11-13T09:01:25.625Z,99538.21
2018-11-13T09:03:54.286Z,99544.34
2018-11-13T09:06:22.861Z,99539.84
2018-11-13T09:08:51.507Z,99546.34
2018-11-13T09:11:20.769Z,99547.80
2018-11-13T09:13:50.788Z,99543.68
2018-11-13T09:16:20.285Z,99559.12
2018-11-13T09:18:48.937Z,99559.66
2018-11-13T09:21:17.557Z,99566.72
2018-11-13T09:23:47.332Z,99572.26
2018-11-13T09:26:16.473Z,99560.88
2018-11-13T09:28:45.716Z,99541.55
2018-11-13T09:31:14.367Z,99555.25
2018-11-13T09:33:42.939Z,99554.67
2018-11-13T09:36:12.352Z,99557.98
2018-11-13T09:38:40.961Z,99557.70
2018-11-13T09:41:09.573Z,99563.80
2018-11-13T09:43:38.402Z,99575.97
2018-11-13T09:46:07.113Z,99579.95
2018-11-13T09:48:35.796Z,99577.19
2018-11-13T09:51:04.904Z,99588.64
2018-11-13T09:53:33.566Z,99597.21
2018-11-13T09:56:02.053Z,99606.53
2018-11-13T09:58:30.535Z,99603.38
2018-11-13T10:00:59.250Z,99601.48
2018-11-13T10:03:28.310Z,99591.06
2018-11-13T10:05:56.263Z,99580.23
2018-11-13T10:08:24.857Z,99577.89
2018-11-13T10:10:53.372Z,99579.95
2018-11-13T10:13:22.283Z,99591.33
2018-11-13T10:15:50.806Z,99591.67
2018-11-13T10:18:19.726Z,99591.93
2018-11-13T10:20:48.108Z,99586.02
2018-11-13T10:23:16.936Z,99587.95
2018-11-13T10:25:45.528Z,99595.20
2018-11-13T10:28:14.276Z,99596.02
2018-11-13T10:30:43.087Z,99605.95
2018-11-13T10:33:11.844Z,99608.05
2018-11-13T10:35:40.932Z,99610.25
2018-11-13T10:38:09.493Z,99614.52
2018-11-13T10:40:38.223Z,99613.98
2018-11-13T10:43:06.825Z,99625.94
2018-11-13T10:45:35.320Z,99631.05
2018-11-13T10:48:03.925Z,99637.20
2018-11-13T10:50:32.531Z,99630.22
2018-11-13T10:53:02.154Z,99635.08
2018-11-13T10:55:31.380Z,99635.10
2018-11-13T10:58:00.023Z,99630.30
2018-11-13T11:00:32.828Z,99644.18
2018-11-13T11:03:06.845Z,99634.87
2018-11-13T11:05:35.450Z,99630.09
2018-11-13T11:08:05.228Z,99640.73
2018-11-13T11:10:33.961Z,99639.19
2018-11-13T11:13:03.976Z,99640.16
2018-11-13T11:15:32.458Z,99639.38
2018-11-13T11:18:01.040Z,99639.38
2018-11-13T11:20:30.326Z,99638.88
2018-11-13T11:22:59.559Z,99630.80
2018-11-13T11:25:28.396Z,99633.91
2018-11-13T11:28:00.700Z,99627.72
2018-11-13T11:30:36.263Z,99629.89
2018-11-13T11:36:03.847Z,99629.95
2018-11-13T11:38:35.821Z,99634.23
2018-11-13T11:41:04.418Z,99626.74
2018-11-13T11:43:34.376Z,99633.11
2018-11-13T11:46:09.043Z,99649.34
2018-11-13T11:48:38.372Z,99640.33
2018-11-13T11:51:11.163Z,99619.37
2018-11-13T11:53:42.670Z,99623.67
2018-11-13T11:56:13.179Z,99627.29
2018-11-13T11:58:44.566Z,99627.33
2018-11-13T12:01:14.319Z,99622.98
2018-11-13T12:03:43.014Z,99621.16
2018-11-13T12:06:13.299Z,99618.71
2018-11-13T12:15:39.157Z,99649.02
2018-11-13T12:18:08.211Z,99648.43
2018-11-13T12:20:36.870Z,99656.97
2018-11-13T12:23:05.774Z,99664.97
2018-11-13T12:25:34.460Z,99662.81
2018-11-13T12:28:03.073Z,99658.02
2018-11-13T12:30:32.431Z,99651.60
2018-11-13T12:33:06.532Z,99637.48
2018-11-13T12:35:35.286Z,99636.34
2018-11-13T12:38:04.334Z,99657.17
2018-11-13T12:40:37.403Z,99663.83
2018-11-13T12:43:08.097Z,99669.73
2018-11-13T12:45:37.886Z,99663.83
2018-11-13T12:48:07.102Z,99655.98
2018-11-13T12:50:45.476Z,99651.94
2018-11-13T12:53:17.016Z,99655.14
2018-11-13T12:55:47.294Z,99660.85
2018-11-13T12:58:17.505Z,99662.50
2018-11-13T13:00:47.108Z,99667.33
2018-11-13T13:03:16.818Z,99666.78
2018-11-13T13:05:46.289Z,99674.24
2018-11-13T13:08:15.772Z,99680.20
2018-11-13T13:10:52.811Z,99684.48
2018-11-13T13:13:23.247Z,99685.36
2018-11-13T13:15:55.810Z,99696.02
2018-11-13T13:18:30.455Z,99689.42
2018-11-13T13:21:12.459Z,99707.28
2018-11-13T13:23:44.515Z,99705.13
2018-11-13T13:26:13.366Z,99710.18
2018-11-13T14:54:50.549Z,99773.91
2018-11-13T14:57:20.561Z,99770.72
2018-11-13T14:59:49.578Z,99779.51
2018-11-13T15:02:19.296Z,99781.88
2018-11-13T15:04:50.361Z,99782.41
2018-11-13T15:07:22.841Z,99789.07
2018-11-13T15:12:47.137Z,99791.52
2018-11-13T15:15:16.543Z,99791.50
2018-11-13T15:17:49.588Z,99801.33
2018-11-13T15:20:19.317Z,99802.42
2018-11-13T15:22:53.175Z,99803.24
2018-11-13T15:25:27.160Z,99805.09
2018-11-13T15:28:00.507Z,99812.83
2018-11-13T15:30:31.018Z,99809.61
2018-11-13T15:33:04.240Z,99814.12
2018-11-13T15:35:33.388Z,99817.30
2018-11-13T15:38:02.523Z,99821.84
2018-11-13T15:40:32.388Z,99827.19
2018-11-13T15:43:01.553Z,99826.64
2018-11-13T15:45:30.854Z,99834.12
2018-11-13T15:48:01.201Z,99831.46
2018-11-13T15:50:32.507Z,99833.31
2018-11-13T15:53:01.648Z,99825.90
2018-11-13T15:55:31.341Z,99837.33
2018-11-13T15:58:01.643Z,99845.83
2018-11-13T16:00:38.341Z,99847.95
2018-11-13T16:03:09.897Z,99851.69
2018-11-13T16:05:42.105Z,99862.58
2018-11-13T16:08:11.627Z,99859.66
2018-11-13T16:10:40.760Z,99863.09
2018-11-13T16:13:10.359Z,99868.67
2018-11-13T16:15:40.646Z,99876.38
2018-11-13T16:18:13.410Z,99867.88
2018-11-13T16:20:43.130Z,99882.22
2018-11-13T16:23:13.862Z,99881.41
2018-11-13T16:25:44.041Z,99880.59
2018-11-13T16:28:13.544Z,99886.73
2018-11-13T16:30:44.552Z,99884.34
2018-11-13T16:33:13.797Z,99880.36
2018-11-13T16:35:43.439Z,99886.20
2018-11-13T16:38:14.876Z,99872.91
2018-11-13T16:40:45.450Z,99880.36
2018-11-13T16:43:16.600Z,99888.86
2018-11-13T16:45:45.912Z,99868.12
2018-11-13T16:48:15.662Z,99864.16
2018-11-13T16:50:47.496Z,99881.97
2018-11-13T16:53:17.003Z,99883.56
2018-11-13T16:55:51.973Z,99896.05
2018-11-13T16:58:22.201Z,99896.56
2018-11-13T17:00:51.985Z,99891.00
2018-11-13T17:03:27.309Z,99900.81
2018-11-13T17:05:58.164Z,99905.58
2018-11-13T17:08:27.649Z,99891.75
2018-11-13T17:10:58.519Z,99899.67
2018-11-13T17:13:28.343Z,99900.50
2018-11-13T17:15:57.823Z,99905.53
2018-11-13T17:18:28.626Z,99908.95
2018-11-13T17:21:01.282Z,99909.47
2018-11-13T17:23:30.566Z,99905.73
2018-11-13T17:25:59.692Z,99903.37
2018-11-13T17:28:29.104Z,99903.88
2018-11-13T17:31:00.076Z,99912.38
2018-11-13T17:33:30.471Z,99914.00
2018-11-13T17:36:01.011Z,99919.06
2018-11-13T17:38:31.503Z,99920.09
2018-11-13T17:41:00.096Z,99925.14
2018-11-13T17:43:28.664Z,99929.34
2018-11-13T17:45:58.026Z,99929.36
2018-11-13T17:48:28.494Z,99933.34
2018-11-13T17:51:05.979Z,99934.63
2018-11-13T17:53:38.361Z,99943.66
2018-11-13T17:56:07.427Z,99951.84
2018-11-13T17:58:40.271Z,99949.98
2018-11-13T18:01:10.889Z,99946.79
2018-11-13T18:03:39.646Z,99950.78
2018-11-13T18:06:08.281Z,99953.44
2018-11-13T18:08:36.976Z,99960.83
2018-11-13T18:11:06.006Z,99957.10
2018-11-13T18:13:34.757Z,99959.20
2018-11-13T18:16:03.434Z,99965.80
2018-11-13T18:18:31.948Z,99970.92
2018-11-13T18:21:00.549Z,99970.37
2018-11-13T18:23:29.218Z,99968.00
2018-11-13T18:25:57.736Z,99967.73
2018-11-13T18:28:26.521Z,99967.50
2018-11-13T18:30:55.065Z,99969.95
2018-11-13T18:33:23.660Z,99975.55
2018-11-13T18:35:52.147Z,99968.46
2018-11-13T18:38:20.847Z,99974.03
2018-11-13T18:40:49.329Z,99975.63
2018-11-13T18:43:17.921Z,99977.49
2018-11-13T18:45:46.512Z,99976.42
2018-11-13T18:48:15.027Z,99980.22
2018-11-13T18:50:45.162Z,100004.64
2018-11-13T18:53:14.894Z,100001.41
2018-11-13T18:55:43.586Z,100004.92
2018-11-13T18:58:12.425Z,100013.41
2018-11-13T19:00:41.635Z,100010.48
2018-11-13T19:03:11.449Z,100017.14
2018-11-13T19:05:39.950Z,100018.72
2018-11-13T19:08:08.824Z,100026.94
2018-11-13T19:10:38.044Z,100022.91
2018-11-13T19:13:08.623Z,100016.77
2018-11-13T19:15:39.212Z,100021.00
2018-11-13T19:18:08.292Z,100027.08
2018-11-13T19:20:36.817Z,100028.60
2018-11-13T19:23:05.574Z,100031.97
2018-11-13T19:25:34.782Z,100037.02
2018-11-13T19:28:03.472Z,100045.81
2018-11-13T19:30:32.022Z,100050.13
2018-11-13T19:33:00.640Z,100055.14
2018-11-13T19:35:29.261Z,100052.73
2018-11-13T19:37:57.704Z,100054.29
2018-11-13T19:40:28.338Z,100056.91
2018-11-13T19:42:57.874Z,100060.58
2018-11-13T19:45:26.446Z,100055.00
2018-11-13T19:47:54.987Z,100056.61
2018-11-13T19:50:24.923Z,100054.67
2018-11-13T19:52:53.605Z,100059.38
2018-11-13T19:55:22.677Z,100070.17
2018-11-13T19:57:51.442Z,100066.55
2018-11-13T20:00:52.058Z,100067.19
2018-11-13T20:03:20.612Z,100067.36
2018-11-13T20:05:49.232Z,100068.69
2018-11-13T20:08:17.798Z,100068.34
2018-11-13T20:10:46.370Z,100064.69
2018-11-13T20:13:14.809Z,100070.45
2018-11-13T20:15:43.496Z,100076.98
2018-11-13T20:18:12.014Z,100075.85
2018-11-13T20:20:40.557Z,100079.05
2018-11-13T20:23:16.273Z,100080.67
2018-11-13T20:25:44.802Z,100089.62
2018-11-13T20:28:13.335Z,100082.38
2018-11-13T20:30:43.045Z,100082.48
2018-11-13T20:33:11.473Z,100085.16
2018-11-13T20:35:40.097Z,100093.31
2018-11-13T20:38:08.919Z,100096.92
2018-11-13T20:40:38.196Z,100094.27
2018-11-13T20:43:09.161Z,100090.41
2018-11-13T20:45:37.726Z,100093.60
2018-11-13T20:48:06.500Z,100097.78
2018-11-13T20:50:35.367Z,100098.19
2018-11-13T20:53:03.988Z,100092.45
2018-11-13T20:55:32.523Z,100098.36
2018-11-13T20:58:01.109Z,100093.03
2018-11-13T21:00:34.530Z,100099.62
2018-11-13T21:03:03.289Z,100097.44
2018-11-13T21:05:31.782Z,100098.66
2018-11-13T21:08:00.413Z,100103.83
2018-11-13T21:10:31.581Z,100104.64
2018-11-13T21:13:00.541Z,100105.12
2018-11-13T21:15:29.108Z,100104.76
2018-11-13T21:17:57.652Z,100105.34
2018-11-13T21:20:26.522Z,100108.39
2018-11-13T21:22:54.870Z,100107.25
2018-11-13T21:25:24.514Z,100108.42
2018-11-13T21:27:54.975Z,100108.52
2018-11-13T21:30:23.675Z,100103.11
2018-11-13T21:32:52.905Z,100103.23
2018-11-13T21:35:21.458Z,100104.06
2018-11-13T21:37:51.263Z,100104.01
2018-11-13T21:40:21.197Z,100104.18
2018-11-13T21:42:50.610Z,100106.19
2018-11-13T21:45:20.094Z,100111.84
2018-11-13T21:47:49.175Z,100119.66
2018-11-13T21:50:18.998Z,100114.17
2018-11-13T21:52:47.695Z,100116.66
2018-11-13T21:55:17.719Z,100112.49
2018-11-13T21:57:46.452Z,100122.44
2018-11-13T22:00:17.820Z,100124.22
2018-11-13T22:02:53.734Z,100128.80
2018-11-13T22:05:23.215Z,100124.64
2018-11-13T22:07:51.706Z,100134.91
2018-11-13T22:10:20.340Z,100137.84
2018-11-13T22:12:48.884Z,100136.01
2018-11-13T22:15:18.879Z,100136.95
2018-11-13T22:17:47.411Z,100144.28
2018-11-13T22:20:16.998Z,100149.94
2018-11-13T22:22:45.712Z,100149.39
2018-11-13T22:25:16.779Z,100151.48
2018-11-13T22:27:46.640Z,100154.52
2018-11-13T22:30:16.146Z,100148.67
2018-11-13T22:32:45.252Z,100145.64
2018-11-13T22:35:14.503Z,100146.61
2018-11-13T22:37:43.022Z,100155.36
2018-11-13T22:40:13.821Z,100154.91
2018-11-13T22:42:42.375Z,100156.30
2018-11-13T22:45:13.728Z,100155.10
2018-11-13T22:47:42.387Z,100155.06
2018-11-13T22:50:13.762Z,100152.83
2018-11-13T22:52:42.972Z,100151.11
2018-11-13T22:55:12.160Z,100155.15
2018-11-13T22:57:41.288Z,100150.92
2018-11-13T23:00:47.971Z,100166.73
2018-11-13T23:03:17.615Z,100159.97
2018-11-13T23:05:50.628Z,100170.70
2018-11-13T23:08:20.667Z,100165.81
2018-11-13T23:10:50.249Z,100169.86
2018-11-13T23:13:18.747Z,100167.50
2018-11-13T23:15:47.304Z,100169.67
2018-11-13T23:18:15.993Z,100173.20
2018-11-13T23:20:44.503Z,100167.35
2018-11-13T23:23:13.129Z,100171.88
2018-11-13T23:25:41.594Z,100175.52
2018-11-13T23:28:10.314Z,100177.64
2018-11-13T23:30:38.802Z,100184.14
2018-11-13T23:33:07.650Z,100182.27
2018-11-13T23:35:35.814Z,100185.76
2018-11-13T23:38:04.361Z,100186.23
2018-11-13T23:40:32.877Z,100187.56
2018-11-13T23:43:01.333Z,100186.31
2018-11-13T23:45:29.825Z,100185.64
2018-11-13T23:47:58.529Z,100186.16
2018-11-13T23:50:27.197Z,100189.27
2018-11-13T23:52:55.716Z,100190.42
2018-11-13T23:55:24.296Z,100193.58
2018-11-13T23:57:52.823Z,100193.75
